Terminal Aerodrome Forecast
Issued by NWS

Home | Current Version | Previous Version | Text Only | Print | Product List | Glossary On
Versions: 1 2 3 4 5 6 7 8 9 10 11 12 13
000
FTUS42 KMLB 021720
TAFTIX
TAF
KTIX 021720Z 0218/0318 22013G20KT P6SM VCSH SCT040 BKN080
      TEMPO 0218/0221 3SM TSRA BKN020CB OVC040
     FM022200 22007KT P6SM VCSH SCT030 OVC060
     FM030400 19004KT P6SM FEW035 BKN090 OVC200=

USA.gov is the U.S. government's official web portal to all federal, state and local government web resources and services.